Time;durP1;ratioP1;P1;durP2;ratioP2;P2;SDS_P1;SDS_P2;PMS_P1;PMS_P2;Temp;Humidity;BMP_temperature;BMP_pressure;BME280_temperature;BME280_humidity;BME280_pressure;Samples;Min_cycle;Max_cycle;Signal;HPM_P1;HPM_P2
2022/11/22 00:00:29;;;;;;;5.75;3.05;;;;;;;8.79;74.79;99399.88;5087771;28;20080;-26
2022/11/22 00:02:55;;;;;;;3.97;2.47;;;;;;;8.87;73.61;99388.09;5069341;28;20080;-26
2022/11/22 00:05:21;;;;;;;4.07;2.55;;;;;;;9.07;74.64;99403.81;5087439;28;20803;-26
2022/11/22 00:07:46;;;;;;;3.92;2.55;;;;;;;8.97;77.50;99399.03;5068872;28;20028;-27
2022/11/22 00:10:14;;;;;;;4.78;2.70;;;;;;;9.10;76.79;99398.06;5087257;28;20036;-25
2022/11/22 00:12:40;;;;;;;4.73;2.97;;;;;;;9.11;76.12;99408.44;5087100;28;20036;-29
2022/11/22 00:15:07;;;;;;;5.18;3.20;;;;;;;9.32;75.66;99406.34;5069144;28;20047;-27
2022/11/22 00:17:33;;;;;;;4.38;2.72;;;;;;;9.38;75.40;99402.78;5069009;28;20032;-27
2022/11/22 00:19:58;;;;;;;5.10;3.10;;;;;;;9.22;75.59;99410.34;5087104;28;20080;-27
2022/11/22 00:22:24;;;;;;;4.70;2.90;;;;;;;9.20;75.35;99417.75;5087313;28;20035;-29
2022/11/22 00:24:51;;;;;;;4.45;2.60;;;;;;;9.16;74.42;99421.91;5068883;28;20028;-30
2022/11/22 00:27:17;;;;;;;4.75;2.78;;;;;;;9.08;74.86;99424.88;5087185;28;20036;-27
2022/11/22 00:29:42;;;;;;;4.38;2.72;;;;;;;8.75;74.42;99409.34;5068833;28;20024;-28
2022/11/22 00:32:08;;;;;;;4.55;2.45;;;;;;;8.95;74.12;99425.03;5087175;28;20024;-29
2022/11/22 00:34:33;;;;;;;4.55;2.70;;;;;;;8.93;74.25;99432.41;5087196;28;20031;-28
2022/11/22 00:36:58;;;;;;;4.68;2.63;;;;;;;8.91;74.56;99424.69;5086961;28;20032;-30
2022/11/22 00:39:24;;;;;;;5.15;2.80;;;;;;;8.92;72.14;99420.16;5087127;28;20024;-28
2022/11/22 00:41:49;;;;;;;4.40;2.70;;;;;;;8.79;72.65;99406.00;5086723;28;20043;-27
2022/11/22 00:44:15;;;;;;;5.65;3.97;;;;;;;8.94;71.89;99423.41;5087163;28;20031;-30
2022/11/22 00:46:40;;;;;;;4.57;2.50;;;;;;;8.81;71.70;99427.06;5087129;28;20032;-28
2022/11/22 00:49:06;;;;;;;5.18;3.03;;;;;;;8.65;70.85;99409.84;5086491;28;20048;-29
2022/11/22 00:51:31;;;;;;;4.30;2.20;;;;;;;8.48;71.84;99416.78;5087197;28;20570;-28
2022/11/22 00:53:57;;;;;;;5.20;3.17;;;;;;;8.26;72.52;99401.25;5086348;28;20418;-29
2022/11/22 00:56:22;;;;;;;4.85;2.60;;;;;;;8.40;71.76;99425.84;5086754;28;20114;-27
2022/11/22 00:58:48;;;;;;;5.43;3.00;;;;;;;8.27;72.11;99392.22;5068744;28;20055;-33
2022/11/22 01:01:13;;;;;;;3.90;2.47;;;;;;;8.39;71.66;99424.22;5087027;28;20024;-27
2022/11/22 01:03:39;;;;;;;4.90;2.90;;;;;;;8.38;72.30;99436.69;5087107;28;20032;-26
2022/11/22 01:06:04;;;;;;;4.80;2.53;;;;;;;8.20;71.88;99434.00;5086567;28;20024;-27
2022/11/22 01:08:29;;;;;;;4.55;2.85;;;;;;;8.12;72.93;99452.88;5086861;28;20032;-28
2022/11/22 01:10:56;;;;;;;4.15;2.70;;;;;;;8.24;72.44;99457.25;5090556;28;20043;-27
2022/11/22 01:13:22;;;;;;;5.07;2.63;;;;;;;8.24;72.15;99445.81;5090703;28;20030;-28
2022/11/22 01:15:47;;;;;;;5.45;2.70;;;;;;;8.16;72.89;99456.72;5090475;28;20032;-27
2022/11/22 01:18:13;;;;;;;4.65;2.75;;;;;;;7.97;73.48;99434.63;5072561;28;20111;-29
2022/11/22 01:20:41;;;;;;;6.10;3.08;;;;;;;8.03;73.20;99423.94;5072217;28;20462;-27
2022/11/22 01:23:07;;;;;;;5.25;2.95;;;;;;;8.00;72.40;99421.69;5090710;28;20405;-27
2022/11/22 01:25:32;;;;;;;5.50;3.00;;;;;;;8.17;73.61;99445.06;5090326;28;20028;-27
2022/11/22 01:27:57;;;;;;;5.05;2.70;;;;;;;8.02;72.84;99424.16;5090155;28;20035;-28
2022/11/22 01:30:23;;;;;;;5.43;2.97;;;;;;;8.00;73.40;99448.25;5090463;28;20031;-27
2022/11/22 01:32:48;;;;;;;4.93;2.60;;;;;;;7.85;73.17;99451.25;5089930;28;20678;-26
2022/11/22 01:35:14;;;;;;;5.22;2.78;;;;;;;7.85;73.94;99453.09;5090288;28;20030;-26
2022/11/22 01:37:39;;;;;;;4.80;2.72;;;;;;;7.77;73.68;99453.34;5071770;28;20035;-30
2022/11/22 01:40:05;;;;;;;4.70;2.80;;;;;;;7.90;73.87;99455.09;5089846;28;20024;-27
2022/11/22 01:42:52;;;;;;;6.18;3.33;;;;;;;7.91;73.69;99446.91;5071746;28;20045;-27
2022/11/22 01:45:30;;;;;;;4.43;2.57;;;;;;;7.85;74.22;99466.38;5090179;28;20639;-27
2022/11/22 01:48:32;;;;;;;5.00;3.25;;;;;;;7.76;74.23;99464.97;5089822;28;20021;-27
2022/11/22 01:51:12;;;;;;;4.85;2.72;;;;;;;7.48;75.22;99463.53;5071670;28;20044;-26
2022/11/22 01:53:38;;;;;;;5.38;3.20;;;;;;;7.46;75.32;99452.34;5071631;28;20028;-26
2022/11/22 01:56:09;;;;;;;5.90;3.35;;;;;;;7.42;75.23;99459.09;5089653;28;20498;-27
2022/11/22 01:58:38;;;;;;;4.75;2.88;;;;;;;7.34;74.70;99454.03;5071564;28;20419;-28
2022/11/22 02:01:03;;;;;;;4.32;2.38;;;;;;;7.28;75.24;99476.91;5089520;28;20046;-28
2022/11/22 02:03:32;;;;;;;5.63;2.90;;;;;;;7.26;75.11;99459.59;5071562;28;20032;-29
2022/11/22 02:05:58;;;;;;;6.07;3.42;;;;;;;7.30;75.48;99456.28;5089683;28;20042;-26
2022/11/22 02:08:36;;;;;;;6.40;3.53;;;;;;;7.46;74.33;99462.94;5071314;28;20173;-29
2022/11/22 02:11:02;;;;;;;7.28;3.13;;;;;;;7.41;74.78;99468.06;5071461;28;20032;-29
2022/11/22 02:13:31;;;;;;;5.30;2.95;;;;;;;7.49;74.35;99475.78;5070932;28;20077;-30
2022/11/22 02:15:57;;;;;;;5.95;3.58;;;;;;;7.63;73.39;99476.50;5089730;28;20035;-29
2022/11/22 02:18:22;;;;;;;5.28;3.35;;;;;;;7.68;73.32;99484.63;5089874;28;20036;-30
2022/11/22 02:20:48;;;;;;;7.97;3.90;;;;;;;7.49;73.63;99459.84;5089521;28;20036;-27
2022/11/22 02:23:29;;;;;;;6.45;3.70;;;;;;;7.63;72.93;99461.41;5089229;28;20031;-30
2022/11/22 02:26:01;;;;;;;5.82;3.25;;;;;;;7.57;74.06;99453.47;5088953;28;20031;-27
2022/11/22 02:28:33;;;;;;;6.05;3.40;;;;;;;7.62;74.16;99473.06;5070980;28;20027;-26
2022/11/22 02:30:59;;;;;;;6.15;3.95;;;;;;;7.68;75.01;99484.63;5089756;28;20028;-25
2022/11/22 02:33:24;;;;;;;6.70;4.15;;;;;;;7.59;74.12;99467.34;5089142;28;20039;-28
2022/11/22 02:35:50;;;;;;;7.15;4.00;;;;;;;7.64;74.74;99478.97;5088950;28;20032;-27
2022/11/22 02:38:20;;;;;;;6.40;3.58;;;;;;;7.59;75.08;99491.22;5088788;28;20085;-28
2022/11/22 02:40:54;;;;;;;6.90;4.38;;;;;;;7.60;74.93;99488.38;5089288;28;20032;-26
2022/11/22 02:43:22;;;;;;;6.53;3.63;;;;;;;7.18;76.66;99468.59;5089414;28;20039;-27
2022/11/22 02:45:47;;;;;;;7.00;4.18;;;;;;;7.35;76.71;99485.63;5088840;28;20031;-28
2022/11/22 02:48:15;;;;;;;6.47;3.95;;;;;;;7.30;76.86;99496.06;5070291;28;20832;-26
2022/11/22 02:50:41;;;;;;;6.85;3.83;;;;;;;7.34;76.53;99493.81;5088938;28;20056;-29
2022/11/22 02:53:08;;;;;;;6.90;4.03;;;;;;;7.22;76.76;99491.03;5088389;28;20467;-31
2022/11/22 02:55:34;;;;;;;8.30;4.57;;;;;;;7.29;76.29;99496.28;5088998;28;20733;-27
2022/11/22 02:58:00;;;;;;;8.18;4.50;;;;;;;7.12;76.71;99496.75;5088605;28;20147;-26
2022/11/22 03:00:26;;;;;;;7.93;4.25;;;;;;;6.80;77.19;99477.28;5070312;28;20040;-29
2022/11/22 03:02:51;;;;;;;9.32;4.80;;;;;;;7.03;76.47;99498.84;5088462;28;20412;-30
2022/11/22 03:05:17;;;;;;;6.80;4.63;;;;;;;6.73;78.16;99498.53;5069997;28;20032;-27
2022/11/22 03:07:42;;;;;;;8.55;4.45;;;;;;;6.58;78.90;99500.59;5088426;28;20028;-27
2022/11/22 03:10:09;;;;;;;7.72;4.07;;;;;;;6.59;80.19;99502.22;5088428;28;20039;-26
2022/11/22 03:12:34;;;;;;;7.95;4.32;;;;;;;6.83;77.81;99509.50;5088587;28;20491;-28
2022/11/22 03:14:59;;;;;;;9.43;4.22;;;;;;;6.98;77.65;99513.75;5088622;28;20057;-26
2022/11/22 03:17:25;;;;;;;7.43;4.18;;;;;;;6.87;77.54;99506.44;5088671;28;20036;-26
2022/11/22 03:19:50;;;;;;;6.25;3.83;;;;;;;6.89;77.55;99515.00;5088100;28;20069;-29
2022/11/22 03:22:16;;;;;;;6.22;3.22;;;;;;;6.78;76.99;99511.13;5069537;28;20031;-27
2022/11/22 03:24:41;;;;;;;7.18;3.55;;;;;;;6.80;77.81;99504.63;5088626;28;20035;-26
2022/11/22 03:27:06;;;;;;;8.13;3.70;;;;;;;6.94;77.67;99515.19;5069974;28;20028;-27
2022/11/22 03:29:32;;;;;;;7.20;4.07;;;;;;;6.90;78.34;99520.06;5088456;28;20061;-26
2022/11/22 03:31:57;;;;;;;6.50;3.85;;;;;;;6.83;77.49;99512.16;5087230;28;20495;-26
2022/11/22 03:34:23;;;;;;;6.80;3.80;;;;;;;6.81;77.68;99508.09;5069463;28;20030;-26
2022/11/22 03:36:48;;;;;;;7.10;4.30;;;;;;;7.02;77.08;99522.91;5087690;28;20169;-30
2022/11/22 03:39:14;;;;;;;7.43;3.88;;;;;;;6.84;77.23;99513.78;5069580;28;20020;-27
2022/11/22 03:41:39;;;;;;;6.03;3.80;;;;;;;6.73;77.99;99535.63;5087881;28;20020;-27
2022/11/22 03:44:04;;;;;;;6.93;3.80;;;;;;;6.54;78.74;99513.44;5069114;28;20518;-26
2022/11/22 03:46:30;;;;;;;6.28;3.72;;;;;;;6.56;78.32;99514.03;5087738;28;20031;-27
2022/11/22 03:48:55;;;;;;;6.88;3.97;;;;;;;6.83;77.08;99529.91;5068891;28;20101;-27
2022/11/22 03:51:21;;;;;;;6.90;3.83;;;;;;;6.84;77.75;99508.50;5087324;28;20429;-27
2022/11/22 03:53:46;;;;;;;6.60;3.55;;;;;;;6.93;76.30;99526.81;5087429;28;20032;-27
2022/11/22 03:56:12;;;;;;;6.65;3.95;;;;;;;6.75;77.30;99522.97;5087679;28;20020;-31
2022/11/22 03:58:37;;;;;;;6.70;3.55;;;;;;;6.63;78.02;99503.44;5087688;28;20032;-26
2022/11/22 04:01:03;;;;;;;6.68;3.90;;;;;;;6.61;78.54;99532.78;5068979;28;20019;-27
2022/11/22 04:03:28;;;;;;;9.55;3.97;;;;;;;6.55;78.84;99544.19;5069097;28;20063;-26
2022/11/22 04:05:54;;;;;;;7.53;4.10;;;;;;;6.68;79.35;99553.97;5068690;28;20028;-29
2022/11/22 04:08:19;;;;;;;6.38;3.72;;;;;;;6.53;79.12;99550.72;5087491;28;20039;-27
2022/11/22 04:10:47;;;;;;;7.45;3.90;;;;;;;6.66;78.50;99566.63;5087388;28;20064;-27
2022/11/22 04:13:13;;;;;;;7.85;4.43;;;;;;;6.62;78.60;99570.69;5068969;28;20069;-26
2022/11/22 04:15:39;;;;;;;8.35;3.83;;;;;;;6.69;78.41;99566.19;5087237;28;20074;-28
2022/11/22 04:18:08;;;;;;;7.50;4.20;;;;;;;6.44;79.34;99552.78;5086979;28;20035;-28
2022/11/22 04:23:20;;;;;;;6.78;4.05;;;;;;;6.23;80.83;99567.00;5087352;28;20560;-29
2022/11/22 04:25:48;;;;;;;7.32;4.18;;;;;;;6.10;81.36;99567.00;5086910;28;20031;-27
2022/11/22 04:28:15;;;;;;;6.45;3.97;;;;;;;6.11;80.56;99588.00;5087104;28;20547;-28
2022/11/22 04:33:26;;;;;;;7.80;4.65;;;;;;;6.30;81.33;99598.81;5086928;28;20749;-26
2022/11/22 04:35:52;;;;;;;7.85;4.63;;;;;;;6.32;80.62;99597.59;5087199;28;20110;-27
2022/11/22 04:38:18;;;;;;;8.75;4.20;;;;;;;6.22;79.81;99592.69;5087183;28;20103;-28
2022/11/22 04:40:43;;;;;;;7.05;4.00;;;;;;;6.06;81.22;99598.34;5087101;28;20024;-27
2022/11/22 04:46:01;;;;;;;7.18;3.92;;;;;;;6.29;80.19;99634.25;5091317;28;20169;-28
2022/11/22 04:48:27;;;;;;;7.28;4.18;;;;;;;6.02;80.79;99613.81;5091118;28;20499;-26
2022/11/22 04:53:36;;;;;;;8.88;4.03;;;;;;;6.24;80.87;99611.81;5091175;28;20031;-27
2022/11/22 04:56:02;;;;;;;11.65;4.63;;;;;;;6.04;80.99;99608.31;5090603;28;20028;-28
2022/11/22 04:58:27;;;;;;;49.03;33.45;;;;;;;6.12;80.79;99625.88;5091013;28;20042;-27
2022/11/22 05:00:53;;;;;;;32.25;23.05;;;;;;;6.07;80.74;99628.28;5091208;28;20032;-27
2022/11/22 05:03:18;;;;;;;13.27;9.02;;;;;;;6.31;79.84;99643.59;5090865;28;20036;-27
2022/11/22 05:05:44;;;;;;;16.38;10.35;;;;;;;6.23;79.39;99618.16;5090622;28;20028;-29
2022/11/22 05:08:10;;;;;;;10.77;6.88;;;;;;;6.23;79.64;99635.84;5090720;28;20408;-29
2022/11/22 05:13:22;;;;;;;10.80;7.38;;;;;;;5.80;81.41;99630.81;5090524;28;20038;-26
2022/11/22 05:15:50;;;;;;;10.68;7.22;;;;;;;5.76;81.49;99619.84;5090464;28;20099;-27
2022/11/22 05:18:16;;;;;;;12.93;7.75;;;;;;;5.59;81.58;99610.59;5072234;28;20762;-27
2022/11/22 05:20:41;;;;;;;11.63;7.47;;;;;;;5.59;82.65;99635.22;5090365;28;20192;-30
2022/11/22 05:25:51;;;;;;;8.88;5.45;;;;;;;5.58;82.08;99660.06;5090442;28;20697;-29
2022/11/22 05:28:17;;;;;;;9.07;5.28;;;;;;;5.14;82.50;99652.47;5090323;28;20032;-29
2022/11/22 05:30:42;;;;;;;10.45;5.30;;;;;;;5.24;81.84;99648.47;5090774;28;20020;-26
2022/11/22 05:33:07;;;;;;;9.00;4.95;;;;;;;5.43;82.24;99669.94;5090094;28;20028;-27
2022/11/22 05:35:33;;;;;;;15.30;5.38;;;;;;;5.62;82.32;99676.34;5090032;28;20092;-27
2022/11/22 05:37:58;;;;;;;10.15;5.05;;;;;;;5.74;82.35;99676.59;5090135;28;20038;-29
2022/11/22 05:40:25;;;;;;;8.15;4.88;;;;;;;5.71;81.24;99669.88;5090259;28;20027;-27
2022/11/22 05:42:51;;;;;;;9.10;5.10;;;;;;;5.86;81.51;99709.41;5090281;28;20028;-29
2022/11/22 05:45:18;;;;;;;9.70;5.35;;;;;;;5.64;82.39;99696.31;5089957;28;20039;-27
2022/11/22 05:47:43;;;;;;;8.38;5.00;;;;;;;5.69;82.27;99692.25;5089904;28;20043;-27
2022/11/22 05:50:09;;;;;;;9.85;5.10;;;;;;;5.92;82.06;99684.81;5089407;28;20056;-29
2022/11/22 05:52:34;;;;;;;9.20;4.72;;;;;;;6.03;81.34;99692.22;5090182;28;20043;-27
2022/11/22 05:55:00;;;;;;;9.85;4.65;;;;;;;6.17;82.02;99716.09;5089208;28;20061;-28
2022/11/22 05:57:26;;;;;;;9.35;5.22;;;;;;;6.25;81.65;99723.84;5089977;28;20028;-28
2022/11/22 05:59:51;;;;;;;9.15;4.82;;;;;;;6.23;80.52;99707.34;5071369;28;20419;-27
2022/11/22 06:02:17;;;;;;;8.98;5.00;;;;;;;6.42;80.08;99719.84;5089511;28;20035;-28
2022/11/22 06:04:42;;;;;;;8.45;5.30;;;;;;;6.26;79.32;99706.97;5089515;28;20067;-26
2022/11/22 06:07:08;;;;;;;8.57;4.88;;;;;;;6.60;79.41;99726.41;5089641;28;20020;-30
2022/11/22 06:09:33;;;;;;;10.50;5.40;;;;;;;6.66;78.87;99730.91;5090025;28;20020;-28
2022/11/22 06:11:59;;;;;;;11.98;6.40;;;;;;;6.87;78.56;99732.56;5089298;28;20032;-25
2022/11/22 06:14:24;;;;;;;10.38;5.70;;;;;;;6.65;79.64;99734.56;5089593;28;20439;-27
2022/11/22 06:16:50;;;;;;;35.75;19.30;;;;;;;6.67;80.11;99727.22;5071063;28;20035;-29
2022/11/22 06:19:16;;;;;;;31.08;18.38;;;;;;;6.77;80.46;99738.25;5089141;28;20177;-29
2022/11/22 06:21:42;;;;;;;33.72;16.58;;;;;;;6.86;79.79;99736.22;5070927;28;20035;-29
2022/11/22 06:24:08;;;;;;;16.80;9.27;;;;;;;7.19;79.38;99732.75;5089343;28;20680;-26
2022/11/22 06:26:33;;;;;;;15.07;7.85;;;;;;;7.25;78.51;99726.63;5089188;28;20024;-27
2022/11/22 06:28:59;;;;;;;13.25;7.57;;;;;;;7.66;76.80;99741.47;5089232;28;20108;-27
2022/11/22 06:31:26;;;;;;;12.75;7.13;;;;;;;7.67;77.12;99737.81;5089132;28;20059;-30
2022/11/22 06:33:58;;;;;;;10.57;6.15;;;;;;;7.71;76.21;99727.59;5088573;28;20576;-28
2022/11/22 06:36:26;;;;;;;8.90;5.30;;;;;;;7.88;75.36;99739.38;5089145;28;20055;-29
2022/11/22 06:38:51;;;;;;;7.65;4.55;;;;;;;7.95;74.73;99724.25;5070589;28;20032;-28
2022/11/22 06:41:19;;;;;;;7.90;4.32;;;;;;;8.27;73.44;99732.28;5070674;28;20581;-26
2022/11/22 06:43:47;;;;;;;6.97;4.30;;;;;;;8.41;72.96;99736.53;5088643;28;20031;-33
2022/11/22 06:46:14;;;;;;;9.73;4.65;;;;;;;8.26;73.73;99733.31;5088685;28;20073;-30
2022/11/22 06:48:40;;;;;;;7.53;4.30;;;;;;;8.44;72.50;99706.06;5088687;28;20122;-26
2022/11/22 06:51:09;;;;;;;9.40;4.78;;;;;;;8.39;72.82;99698.69;5070613;28;20036;-26
2022/11/22 06:53:35;;;;;;;6.70;4.10;;;;;;;8.66;71.55;99727.78;5088806;28;20056;-33
2022/11/22 06:56:11;;;;;;;7.18;4.10;;;;;;;8.76;72.49;99729.97;5088512;28;20066;-28
2022/11/22 06:58:38;;;;;;;9.95;5.05;;;;;;;8.88;71.29;99716.81;5088685;28;20027;-28
2022/11/22 07:01:04;;;;;;;9.25;4.88;;;;;;;8.91;71.71;99753.59;5069913;28;20046;-29
2022/11/22 07:03:30;;;;;;;9.35;5.07;;;;;;;9.01;72.15;99762.75;5088413;28;20484;-27
2022/11/22 07:05:55;;;;;;;8.70;5.20;;;;;;;9.25;70.62;99786.91;5069903;28;20040;-31
2022/11/22 07:08:21;;;;;;;8.00;4.35;;;;;;;9.18;70.04;99792.28;5087893;28;20059;-26
2022/11/22 07:10:47;;;;;;;6.90;4.53;;;;;;;9.29;69.50;99780.13;5088279;28;20028;-25
2022/11/22 07:13:12;;;;;;;6.55;4.15;;;;;;;9.37;68.67;99779.84;5069632;28;20884;-28
2022/11/22 07:15:37;;;;;;;7.90;4.57;;;;;;;9.38;69.13;99759.38;5088173;28;20020;-28
2022/11/22 07:18:03;;;;;;;7.05;4.22;;;;;;;9.52;69.40;99760.06;5069501;28;20027;-28
2022/11/22 07:20:28;;;;;;;7.18;4.68;;;;;;;9.60;68.27;99763.28;5088537;28;20404;-29
2022/11/22 07:22:54;;;;;;;7.75;4.93;;;;;;;9.74;66.23;99765.78;5088236;28;20107;-26
2022/11/22 07:25:20;;;;;;;6.93;4.15;;;;;;;9.69;67.50;99770.97;5088108;28;20024;-29
2022/11/22 07:27:45;;;;;;;7.32;4.25;;;;;;;9.93;66.74;99762.13;5087722;28;20034;-29
2022/11/22 07:30:11;;;;;;;15.95;8.65;;;;;;;10.23;65.26;99756.00;5087943;28;20028;-26
2022/11/22 07:32:36;;;;;;;14.00;9.73;;;;;;;10.15;66.50;99769.66;5087941;28;20550;-27
2022/11/22 07:35:02;;;;;;;10.55;5.78;;;;;;;10.14;67.75;99768.03;5069627;28;20036;-27
2022/11/22 07:37:30;;;;;;;9.88;5.68;;;;;;;10.10;67.04;99756.19;5087648;28;20024;-29
2022/11/22 07:39:56;;;;;;;10.32;5.95;;;;;;;10.36;66.51;99776.38;5087228;28;20022;-26
2022/11/22 07:42:21;;;;;;;9.32;5.15;;;;;;;10.39;66.36;99773.28;5087624;28;20103;-28
2022/11/22 07:44:46;;;;;;;8.88;5.43;;;;;;;10.51;66.02;99779.47;5087404;28;20035;-29
2022/11/22 07:47:12;;;;;;;11.20;6.32;;;;;;;10.68;66.15;99784.19;5069243;28;20048;-27
2022/11/22 07:49:38;;;;;;;12.88;7.47;;;;;;;10.61;66.99;99790.41;5068720;28;20587;-27
2022/11/22 07:52:04;;;;;;;12.50;7.22;;;;;;;10.64;66.68;99757.16;5087380;28;20071;-30
2022/11/22 07:54:30;;;;;;;20.13;12.60;;;;;;;10.96;63.27;99787.06;5087250;28;20036;-28
2022/11/22 07:56:56;;;;;;;20.05;12.25;;;;;;;10.98;64.30;99798.31;5087192;28;20055;-26
2022/11/22 07:59:22;;;;;;;18.17;10.77;;;;;;;10.98;65.33;99789.50;5069147;28;20036;-28
2022/11/22 08:01:47;;;;;;;19.75;10.18;;;;;;;11.16;63.77;99788.63;5087093;28;20063;-26
2022/11/22 08:04:13;;;;;;;24.08;12.27;;;;;;;11.37;62.46;99782.72;5087573;28;20031;-27
2022/11/22 08:06:39;;;;;;;23.15;12.32;;;;;;;11.14;66.50;99772.84;5087079;28;20036;-28
2022/11/22 08:09:04;;;;;;;19.38;9.50;;;;;;;11.28;65.64;99768.09;5087101;28;20107;-27
2022/11/22 08:11:30;;;;;;;16.75;9.35;;;;;;;11.41;65.22;99783.06;5087143;28;20115;-29
2022/11/22 08:13:55;;;;;;;23.35;12.85;;;;;;;11.58;63.11;99777.84;5068435;28;20038;-30
2022/11/22 08:16:20;;;;;;;26.25;14.60;;;;;;;11.53;63.65;99770.53;5068741;28;20561;-27
2022/11/22 08:18:47;;;;;;;28.58;14.60;;;;;;;12.08;62.44;99763.22;5086881;28;20145;-27
2022/11/22 08:21:17;;;;;;;23.70;11.18;;;;;;;12.36;60.44;99770.44;5087523;28;20069;-26
2022/11/22 08:23:43;;;;;;;24.90;12.88;;;;;;;12.36;58.27;99755.22;5068358;28;20545;-30
2022/11/22 08:26:11;;;;;;;21.02;10.73;;;;;;;12.54;59.29;99769.44;5086756;28;20043;-29
2022/11/22 08:28:37;;;;;;;9.60;5.63;;;;;;;12.38;57.29;99755.78;5085385;28;20389;-26
2022/11/22 08:31:09;;;;;;;11.57;6.50;;;;;;;12.57;58.61;99760.94;5086882;28;20051;-30
2022/11/22 08:33:35;;;;;;;12.82;7.88;;;;;;;12.64;60.69;99743.69;5068380;28;20028;-26
2022/11/22 08:36:00;;;;;;;16.70;9.50;;;;;;;12.78;58.72;99759.44;5086710;28;20028;-26
2022/11/22 08:38:26;;;;;;;12.73;8.20;;;;;;;12.46;61.42;99755.41;5087074;28;20039;-28
2022/11/22 08:40:51;;;;;;;14.77;7.90;;;;;;;12.48;62.55;99755.16;5086606;28;20041;-31
2022/11/22 08:43:17;;;;;;;9.75;5.57;;;;;;;12.58;61.95;99743.84;5086870;28;20023;-28
2022/11/22 08:45:42;;;;;;;11.32;5.72;;;;;;;12.79;60.93;99753.88;5068285;28;20039;-27
2022/11/22 08:48:08;;;;;;;10.30;6.22;;;;;;;12.70;62.42;99747.25;5068504;28;20531;-30
2022/11/22 08:50:33;;;;;;;16.02;8.18;;;;;;;13.09;60.03;99750.06;5086345;28;20048;-27
2022/11/22 08:53:02;;;;;;;12.35;7.28;;;;;;;13.06;59.13;99731.81;5086463;28;20040;-27
2022/11/22 08:55:27;;;;;;;13.43;7.07;;;;;;;12.69;60.07;99734.13;5086461;28;20476;-28
2022/11/22 08:57:57;;;;;;;14.20;7.55;;;;;;;13.04;61.18;99734.75;5086540;28;20115;-30
2022/11/22 09:00:22;;;;;;;11.38;6.82;;;;;;;13.11;59.33;99715.03;5086607;28;20846;-27
2022/11/22 09:02:48;;;;;;;14.90;8.23;;;;;;;13.12;58.00;99711.28;5086658;28;20039;-29
2022/11/22 09:05:13;;;;;;;10.93;6.40;;;;;;;13.27;58.29;99701.63;5068111;28;20039;-28
2022/11/22 09:07:38;;;;;;;10.18;6.72;;;;;;;13.16;60.06;99691.81;5086723;28;20032;-26
2022/11/22 09:10:06;;;;;;;12.05;7.28;;;;;;;13.45;62.27;99697.09;5067495;28;20026;-30
2022/11/22 09:12:32;;;;;;;9.65;5.82;;;;;;;13.33;59.04;99691.03;5068349;28;20036;-27
2022/11/22 09:14:57;;;;;;;12.63;5.75;;;;;;;13.24;57.83;99678.03;5086556;28;20466;-28
2022/11/22 09:17:23;;;;;;;10.18;6.25;;;;;;;13.65;60.97;99654.50;5068127;28;20027;-28
2022/11/22 09:19:48;;;;;;;16.67;5.88;;;;;;;13.98;56.83;99676.84;5086723;28;20039;-25
2022/11/22 09:22:14;;;;;;;7.28;4.60;;;;;;;13.97;56.59;99683.25;5067801;28;20036;-30
2022/11/22 09:24:39;;;;;;;47.65;10.23;;;;;;;13.90;57.96;99674.63;5086334;28;20077;-29
2022/11/22 09:27:05;;;;;;;23.38;6.95;;;;;;;13.60;57.63;99665.13;5086433;28;20031;-28
2022/11/22 09:29:30;;;;;;;10.40;6.38;;;;;;;13.19;58.62;99653.84;5086578;28;20024;-28
2022/11/22 09:31:56;;;;;;;11.55;5.82;;;;;;;13.07;58.51;99645.09;5090207;28;20016;-26
2022/11/22 09:34:21;;;;;;;16.95;7.00;;;;;;;13.26;57.98;99651.81;5090097;28;20028;-28
2022/11/22 09:36:46;;;;;;;9.88;5.22;;;;;;;12.93;57.30;99649.97;5090199;28;20031;-30
2022/11/22 09:39:12;;;;;;;11.38;5.72;;;;;;;13.16;59.18;99659.69;5071379;28;20089;-28
2022/11/22 09:42:05;;;;;;;16.45;10.20;;;;;;;13.95;59.17;99650.53;5090223;28;20419;-29
2022/11/22 09:44:37;;;;;;;8.35;5.95;;;;;;;14.17;55.27;99647.03;5071416;28;20034;-28
2022/11/22 09:47:02;;;;;;;8.45;4.55;;;;;;;14.74;54.57;99662.59;5089946;28;20031;-29
2022/11/22 09:49:34;;;;;;;9.10;4.45;;;;;;;14.71;52.87;99652.38;5089735;28;20055;-27
2022/11/22 09:52:10;;;;;;;8.90;5.30;;;;;;;15.27;50.58;99650.06;5090141;28;20121;-27
2022/11/22 09:54:50;;;;;;;10.55;5.60;;;;;;;15.93;49.58;99672.19;5089696;28;20495;-27
2022/11/22 09:57:22;;;;;;;7.05;4.60;;;;;;;15.64;50.58;99665.31;5089800;28;20054;-29
2022/11/22 09:59:53;;;;;;;11.40;6.70;;;;;;;15.62;52.36;99656.69;5089480;28;20062;-30
2022/11/22 10:02:28;;;;;;;25.50;10.52;;;;;;;14.95;53.94;99654.69;5071199;28;20039;-28
2022/11/22 10:04:59;;;;;;;12.02;7.47;;;;;;;14.92;54.62;99652.53;5071398;28;20067;-30
2022/11/22 10:07:33;;;;;;;6.13;4.22;;;;;;;14.65;53.51;99658.78;5089647;28;20034;-26
2022/11/22 10:10:17;;;;;;;17.08;10.80;;;;;;;14.95;55.15;99665.44;5089529;28;20040;-29
2022/11/22 10:12:54;;;;;;;13.05;7.80;;;;;;;15.29;51.78;99665.13;5070861;28;20031;-28
2022/11/22 10:15:25;;;;;;;11.43;7.47;;;;;;;15.88;52.00;99656.84;5089451;28;20104;-29
2022/11/22 10:18:23;;;;;;;11.90;6.05;;;;;;;16.05;52.00;99652.03;5089483;28;20028;-27
2022/11/22 10:20:49;;;;;;;10.38;5.22;;;;;;;16.10;49.86;99670.09;5033043;28;20048;-27
2022/11/22 10:23:25;;;;;;;7.65;4.25;;;;;;;15.41;50.58;99657.69;5089251;28;20020;-27
2022/11/22 10:25:57;;;;;;;7.30;4.10;;;;;;;15.86;50.21;99661.69;5089015;28;20121;-31
2022/11/22 10:28:38;;;;;;;6.35;4.00;;;;;;;15.13;49.88;99616.69;5089104;28;20036;-30
2022/11/22 10:31:28;;;;;;;7.13;4.38;;;;;;;15.42;50.74;99629.72;5088920;28;20526;-28
2022/11/22 10:33:56;;;;;;;6.93;3.90;;;;;;;15.37;51.85;99627.03;5088932;28;20048;-27
2022/11/22 10:36:38;;;;;;;;;;;;;;;15.38;51.97;99618.69;5071027;28;20384;-29
2022/11/22 10:39:09;;;;;;;7.53;3.72;;;;;;;15.59;50.42;99606.16;5070740;28;19915;-29
2022/11/22 10:41:44;;;;;;;5.38;3.42;;;;;;;15.95;51.64;99611.66;5087351;28;20078;-27
2022/11/22 10:44:27;;;;;;;6.28;3.15;;;;;;;16.25;48.37;99593.97;5088908;28;20043;-26
2022/11/22 10:47:34;;;;;;;4.50;2.88;;;;;;;16.30;48.23;99603.94;5088675;28;20024;-29
2022/11/22 10:50:10;;;;;;;4.93;2.85;;;;;;;16.21;49.04;99598.28;5053733;28;20550;-30
2022/11/22 10:52:59;;;;;;;5.72;2.60;;;;;;;16.90;46.37;99620.34;5089140;28;20028;-27
2022/11/22 10:55:50;;;;;;;4.85;2.67;;;;;;;16.84;47.45;99624.97;5088825;28;20494;-28
2022/11/22 10:58:37;;;;;;;4.82;2.63;;;;;;;16.30;47.12;99618.19;5087791;28;20579;-30
2022/11/22 11:01:23;;;;;;;5.60;2.60;;;;;;;16.54;48.69;99634.63;5088586;28;20032;-27
2022/11/22 11:03:56;;;;;;;6.93;3.43;;;;;;;16.42;47.40;99605.28;5088232;28;20109;-28
2022/11/22 11:06:34;;;;;;;6.28;2.80;;;;;;;16.51;47.44;99618.19;5070051;28;20529;-27
2022/11/22 11:09:05;;;;;;;4.95;2.55;;;;;;;17.19;45.53;99623.28;5070335;28;20028;-28
2022/11/22 11:11:33;;;;;;;4.22;2.60;;;;;;;17.05;45.38;99596.09;5069969;28;20051;-28
2022/11/22 11:14:17;;;;;;;22.00;7.28;;;;;;;17.46;44.45;99596.78;5069690;28;20071;-28
2022/11/22 11:16:43;;;;;;;4.38;2.58;;;;;;;17.57;43.17;99594.84;5088291;28;20077;-27
2022/11/22 11:19:19;;;;;;;6.53;2.80;;;;;;;17.25;45.16;99582.56;5088327;28;20458;-29
2022/11/22 11:21:44;;;;;;;4.63;2.95;;;;;;;16.98;44.96;99569.47;5088019;28;20027;-27
2022/11/22 11:24:14;;;;;;;4.72;2.60;;;;;;;17.27;44.85;99576.91;5088172;28;20032;-31
2022/11/22 11:26:42;;;;;;;4.55;2.63;;;;;;;17.34;45.76;99568.53;5088033;28;20081;-30
2022/11/22 11:29:16;;;;;;;6.28;3.40;;;;;;;17.04;45.00;99579.13;5069701;28;20061;-28
2022/11/22 11:32:06;;;;;;;5.28;2.63;;;;;;;16.62;45.35;99571.38;5087525;28;20032;-27
2022/11/22 11:34:32;;;;;;;7.97;4.57;;;;;;;16.27;47.76;99538.03;5088184;28;20024;-26
2022/11/22 11:36:59;;;;;;;6.68;3.50;;;;;;;16.20;48.23;99532.09;5069588;28;20032;-27
2022/11/22 11:39:29;;;;;;;4.93;2.28;;;;;;;15.75;48.57;99536.34;5069679;28;20068;-31
2022/11/22 11:41:55;;;;;;;6.18;2.75;;;;;;;15.74;50.12;99529.38;5087435;28;20801;-27
2022/11/22 11:44:36;;;;;;;9.75;4.00;;;;;;;15.62;49.36;99519.63;5069306;28;20031;-29
2022/11/22 11:47:03;;;;;;;13.73;5.95;;;;;;;15.48;49.43;99523.88;5087670;28;20024;-27
2022/11/22 11:49:31;;;;;;;6.03;3.33;;;;;;;15.56;50.53;99525.25;5087671;28;20066;-27
2022/11/22 11:52:14;;;;;;;6.05;2.80;;;;;;;15.60;51.51;99515.59;5068715;28;20032;-29
2022/11/22 11:54:45;;;;;;;5.65;2.50;;;;;;;15.31;50.96;99520.63;5068670;28;20038;-29
2022/11/22 11:57:20;;;;;;;5.07;2.45;;;;;;;14.87;51.71;99508.31;5069091;28;20163;-28